sensor_id;sensor_type;location;lat;lon;timestamp;P1;durP1;ratioP1;P2;durP2;ratioP2
39620;SDS011;25309;48.686;9.170;2022-08-25T00:01:32;3.80;;;2.83;;
39620;SDS011;25309;48.686;9.170;2022-08-25T00:04:05;3.97;;;2.60;;
39620;SDS011;25309;48.686;9.170;2022-08-25T00:06:37;4.13;;;2.87;;
39620;SDS011;25309;48.686;9.170;2022-08-25T00:09:06;4.00;;;2.87;;
39620;SDS011;25309;48.686;9.170;2022-08-25T00:11:34;3.50;;;3.00;;
39620;SDS011;25309;48.686;9.170;2022-08-25T00:14:03;3.87;;;2.70;;
39620;SDS011;25309;48.686;9.170;2022-08-25T00:16:31;3.80;;;2.97;;
39620;SDS011;25309;48.686;9.170;2022-08-25T00:18:59;3.17;;;2.87;;
39620;SDS011;25309;48.686;9.170;2022-08-25T00:21:29;3.30;;;2.93;;
39620;SDS011;25309;48.686;9.170;2022-08-25T00:23:58;4.50;;;2.90;;
39620;SDS011;25309;48.686;9.170;2022-08-25T00:26:27;3.67;;;2.87;;
39620;SDS011;25309;48.686;9.170;2022-08-25T00:28:54;4.50;;;3.00;;
39620;SDS011;25309;48.686;9.170;2022-08-25T00:31:27;4.50;;;3.20;;
39620;SDS011;25309;48.686;9.170;2022-08-25T00:34:05;3.07;;;2.67;;
39620;SDS011;25309;48.686;9.170;2022-08-25T00:36:33;3.73;;;2.87;;
39620;SDS011;25309;48.686;9.170;2022-08-25T00:39:02;4.20;;;3.00;;
39620;SDS011;25309;48.686;9.170;2022-08-25T00:41:30;4.07;;;2.90;;
39620;SDS011;25309;48.686;9.170;2022-08-25T00:43:58;3.13;;;2.70;;
39620;SDS011;25309;48.686;9.170;2022-08-25T00:46:30;3.13;;;2.60;;
39620;SDS011;25309;48.686;9.170;2022-08-25T00:49:01;3.90;;;3.00;;
39620;SDS011;25309;48.686;9.170;2022-08-25T00:51:32;2.97;;;2.67;;
39620;SDS011;25309;48.686;9.170;2022-08-25T00:54:04;3.97;;;2.87;;
39620;SDS011;25309;48.686;9.170;2022-08-25T00:56:33;3.97;;;3.07;;
39620;SDS011;25309;48.686;9.170;2022-08-25T00:59:01;5.57;;;3.27;;
39620;SDS011;25309;48.686;9.170;2022-08-25T01:01:30;3.50;;;3.07;;
39620;SDS011;25309;48.686;9.170;2022-08-25T01:03:57;4.30;;;3.10;;
39620;SDS011;25309;48.686;9.170;2022-08-25T01:06:24;5.03;;;3.50;;
39620;SDS011;25309;48.686;9.170;2022-08-25T01:08:52;4.63;;;3.23;;
39620;SDS011;25309;48.686;9.170;2022-08-25T01:11:21;3.80;;;2.93;;
39620;SDS011;25309;48.686;9.170;2022-08-25T01:13:48;4.80;;;3.00;;
39620;SDS011;25309;48.686;9.170;2022-08-25T01:16:18;3.90;;;3.20;;
39620;SDS011;25309;48.686;9.170;2022-08-25T01:18:47;3.43;;;3.10;;
39620;SDS011;25309;48.686;9.170;2022-08-25T01:21:17;3.83;;;3.20;;
39620;SDS011;25309;48.686;9.170;2022-08-25T01:23:47;3.73;;;3.20;;
39620;SDS011;25309;48.686;9.170;2022-08-25T01:26:17;3.53;;;3.23;;
39620;SDS011;25309;48.686;9.170;2022-08-25T01:28:56;4.57;;;3.43;;
39620;SDS011;25309;48.686;9.170;2022-08-25T01:31:42;4.70;;;3.50;;
39620;SDS011;25309;48.686;9.170;2022-08-25T01:34:10;4.57;;;3.40;;
39620;SDS011;25309;48.686;9.170;2022-08-25T01:36:40;5.10;;;3.40;;
39620;SDS011;25309;48.686;9.170;2022-08-25T01:39:08;4.43;;;3.50;;
39620;SDS011;25309;48.686;9.170;2022-08-25T01:41:39;4.30;;;3.47;;
39620;SDS011;25309;48.686;9.170;2022-08-25T01:44:17;4.33;;;3.20;;
39620;SDS011;25309;48.686;9.170;2022-08-25T01:46:44;4.60;;;3.33;;
39620;SDS011;25309;48.686;9.170;2022-08-25T01:49:11;5.30;;;3.60;;
39620;SDS011;25309;48.686;9.170;2022-08-25T01:51:42;4.47;;;3.80;;
39620;SDS011;25309;48.686;9.170;2022-08-25T01:54:12;3.90;;;3.47;;
39620;SDS011;25309;48.686;9.170;2022-08-25T01:56:39;3.97;;;3.50;;
39620;SDS011;25309;48.686;9.170;2022-08-25T01:59:06;4.70;;;3.40;;
39620;SDS011;25309;48.686;9.170;2022-08-25T02:01:33;5.93;;;3.87;;
39620;SDS011;25309;48.686;9.170;2022-08-25T02:04:01;5.30;;;3.83;;
39620;SDS011;25309;48.686;9.170;2022-08-25T02:06:29;4.23;;;3.50;;
39620;SDS011;25309;48.686;9.170;2022-08-25T02:09:00;4.23;;;3.60;;
39620;SDS011;25309;48.686;9.170;2022-08-25T02:11:30;4.80;;;3.40;;
39620;SDS011;25309;48.686;9.170;2022-08-25T02:13:58;5.70;;;4.00;;
39620;SDS011;25309;48.686;9.170;2022-08-25T02:16:26;5.17;;;3.70;;
39620;SDS011;25309;48.686;9.170;2022-08-25T02:18:55;5.30;;;3.57;;
39620;SDS011;25309;48.686;9.170;2022-08-25T02:21:24;5.40;;;4.00;;
39620;SDS011;25309;48.686;9.170;2022-08-25T02:23:51;5.77;;;3.90;;
39620;SDS011;25309;48.686;9.170;2022-08-25T02:26:19;5.00;;;3.80;;
39620;SDS011;25309;48.686;9.170;2022-08-25T02:28:46;4.93;;;3.47;;
39620;SDS011;25309;48.686;9.170;2022-08-25T02:31:14;5.00;;;3.50;;
39620;SDS011;25309;48.686;9.170;2022-08-25T02:33:43;4.67;;;3.77;;
39620;SDS011;25309;48.686;9.170;2022-08-25T02:36:10;4.60;;;3.80;;
39620;SDS011;25309;48.686;9.170;2022-08-25T02:38:37;4.53;;;3.73;;
39620;SDS011;25309;48.686;9.170;2022-08-25T02:41:07;4.17;;;3.77;;
39620;SDS011;25309;48.686;9.170;2022-08-25T02:43:39;3.77;;;3.37;;
39620;SDS011;25309;48.686;9.170;2022-08-25T02:46:07;6.40;;;4.20;;
39620;SDS011;25309;48.686;9.170;2022-08-25T02:48:35;5.60;;;3.80;;
39620;SDS011;25309;48.686;9.170;2022-08-25T02:51:03;4.27;;;3.80;;
39620;SDS011;25309;48.686;9.170;2022-08-25T02:53:32;4.70;;;3.63;;
39620;SDS011;25309;48.686;9.170;2022-08-25T02:55:59;4.00;;;3.60;;
39620;SDS011;25309;48.686;9.170;2022-08-25T02:58:26;4.70;;;3.77;;
39620;SDS011;25309;48.686;9.170;2022-08-25T03:00:55;5.80;;;3.90;;
39620;SDS011;25309;48.686;9.170;2022-08-25T03:03:22;5.73;;;3.80;;
39620;SDS011;25309;48.686;9.170;2022-08-25T03:05:49;5.60;;;3.80;;
39620;SDS011;25309;48.686;9.170;2022-08-25T03:08:16;4.70;;;3.70;;
39620;SDS011;25309;48.686;9.170;2022-08-25T03:10:43;5.37;;;4.10;;
39620;SDS011;25309;48.686;9.170;2022-08-25T03:13:12;4.40;;;3.90;;
39620;SDS011;25309;48.686;9.170;2022-08-25T03:15:39;4.50;;;3.70;;
39620;SDS011;25309;48.686;9.170;2022-08-25T03:18:09;4.20;;;3.80;;
39620;SDS011;25309;48.686;9.170;2022-08-25T03:20:39;5.10;;;3.73;;
39620;SDS011;25309;48.686;9.170;2022-08-25T03:23:06;4.33;;;3.73;;
39620;SDS011;25309;48.686;9.170;2022-08-25T03:25:33;5.57;;;3.90;;
39620;SDS011;25309;48.686;9.170;2022-08-25T03:28:20;4.83;;;3.80;;
39620;SDS011;25309;48.686;9.170;2022-08-25T03:30:55;4.40;;;3.50;;
39620;SDS011;25309;48.686;9.170;2022-08-25T03:33:23;4.77;;;3.83;;
39620;SDS011;25309;48.686;9.170;2022-08-25T03:35:50;4.67;;;4.17;;
39620;SDS011;25309;48.686;9.170;2022-08-25T03:38:17;5.50;;;4.30;;
39620;SDS011;25309;48.686;9.170;2022-08-25T03:40:44;5.53;;;3.83;;
39620;SDS011;25309;48.686;9.170;2022-08-25T03:43:11;5.73;;;3.93;;
39620;SDS011;25309;48.686;9.170;2022-08-25T03:45:39;5.33;;;4.10;;
39620;SDS011;25309;48.686;9.170;2022-08-25T03:48:06;4.87;;;4.00;;
39620;SDS011;25309;48.686;9.170;2022-08-25T03:50:35;4.93;;;3.87;;
39620;SDS011;25309;48.686;9.170;2022-08-25T03:53:02;5.10;;;3.90;;
39620;SDS011;25309;48.686;9.170;2022-08-25T03:55:29;5.47;;;3.90;;
39620;SDS011;25309;48.686;9.170;2022-08-25T03:57:57;6.50;;;4.10;;
39620;SDS011;25309;48.686;9.170;2022-08-25T04:00:25;6.07;;;4.73;;
39620;SDS011;25309;48.686;9.170;2022-08-25T04:02:52;6.10;;;4.27;;
39620;SDS011;25309;48.686;9.170;2022-08-25T04:05:19;5.73;;;4.30;;
39620;SDS011;25309;48.686;9.170;2022-08-25T04:07:47;6.57;;;4.93;;
39620;SDS011;25309;48.686;9.170;2022-08-25T04:10:14;6.40;;;4.70;;
39620;SDS011;25309;48.686;9.170;2022-08-25T04:12:41;6.53;;;4.77;;
39620;SDS011;25309;48.686;9.170;2022-08-25T04:15:08;5.17;;;4.20;;
39620;SDS011;25309;48.686;9.170;2022-08-25T04:17:36;6.00;;;4.70;;
39620;SDS011;25309;48.686;9.170;2022-08-25T04:20:05;7.13;;;4.10;;
39620;SDS011;25309;48.686;9.170;2022-08-25T04:22:34;6.40;;;4.40;;
39620;SDS011;25309;48.686;9.170;2022-08-25T04:25:04;5.60;;;4.43;;
39620;SDS011;25309;48.686;9.170;2022-08-25T04:27:33;7.40;;;4.87;;
39620;SDS011;25309;48.686;9.170;2022-08-25T04:30:01;5.83;;;4.67;;
39620;SDS011;25309;48.686;9.170;2022-08-25T04:32:29;5.93;;;4.63;;
39620;SDS011;25309;48.686;9.170;2022-08-25T04:34:57;6.37;;;4.27;;
39620;SDS011;25309;48.686;9.170;2022-08-25T04:37:24;6.10;;;4.27;;
39620;SDS011;25309;48.686;9.170;2022-08-25T04:39:51;6.83;;;4.30;;
39620;SDS011;25309;48.686;9.170;2022-08-25T04:42:19;5.53;;;4.70;;
39620;SDS011;25309;48.686;9.170;2022-08-25T04:44:46;7.80;;;4.27;;
39620;SDS011;25309;48.686;9.170;2022-08-25T04:47:14;5.70;;;4.10;;
39620;SDS011;25309;48.686;9.170;2022-08-25T04:49:41;7.60;;;4.60;;
39620;SDS011;25309;48.686;9.170;2022-08-25T04:52:08;6.00;;;4.20;;
39620;SDS011;25309;48.686;9.170;2022-08-25T04:54:39;7.37;;;4.60;;
39620;SDS011;25309;48.686;9.170;2022-08-25T04:57:06;5.43;;;3.90;;
39620;SDS011;25309;48.686;9.170;2022-08-25T04:59:35;5.30;;;4.17;;
39620;SDS011;25309;48.686;9.170;2022-08-25T05:02:02;7.47;;;4.97;;
39620;SDS011;25309;48.686;9.170;2022-08-25T05:04:30;6.57;;;4.57;;
39620;SDS011;25309;48.686;9.170;2022-08-25T05:06:59;6.53;;;4.27;;
39620;SDS011;25309;48.686;9.170;2022-08-25T05:09:27;6.67;;;4.33;;
39620;SDS011;25309;48.686;9.170;2022-08-25T05:11:58;5.27;;;4.47;;
39620;SDS011;25309;48.686;9.170;2022-08-25T05:14:25;7.03;;;4.73;;
39620;SDS011;25309;48.686;9.170;2022-08-25T05:16:53;6.90;;;4.80;;
39620;SDS011;25309;48.686;9.170;2022-08-25T05:19:21;6.63;;;5.00;;
39620;SDS011;25309;48.686;9.170;2022-08-25T05:21:49;5.90;;;4.67;;
39620;SDS011;25309;48.686;9.170;2022-08-25T05:24:16;6.07;;;4.80;;
39620;SDS011;25309;48.686;9.170;2022-08-25T05:26:44;6.60;;;5.10;;
39620;SDS011;25309;48.686;9.170;2022-08-25T05:29:11;6.17;;;4.90;;
39620;SDS011;25309;48.686;9.170;2022-08-25T05:31:38;5.80;;;5.07;;
39620;SDS011;25309;48.686;9.170;2022-08-25T05:34:12;5.50;;;4.90;;
39620;SDS011;25309;48.686;9.170;2022-08-25T05:36:40;6.33;;;5.00;;
39620;SDS011;25309;48.686;9.170;2022-08-25T05:39:09;5.50;;;4.87;;
39620;SDS011;25309;48.686;9.170;2022-08-25T05:41:36;6.87;;;5.23;;
39620;SDS011;25309;48.686;9.170;2022-08-25T05:44:04;6.17;;;5.00;;
39620;SDS011;25309;48.686;9.170;2022-08-25T05:46:31;6.10;;;5.10;;
39620;SDS011;25309;48.686;9.170;2022-08-25T05:48:58;8.03;;;5.53;;
39620;SDS011;25309;48.686;9.170;2022-08-25T05:51:27;8.03;;;6.00;;
39620;SDS011;25309;48.686;9.170;2022-08-25T05:53:54;8.73;;;5.70;;
39620;SDS011;25309;48.686;9.170;2022-08-25T05:56:21;7.47;;;5.73;;
39620;SDS011;25309;48.686;9.170;2022-08-25T05:58:48;7.80;;;5.60;;
39620;SDS011;25309;48.686;9.170;2022-08-25T06:01:19;7.87;;;6.50;;
39620;SDS011;25309;48.686;9.170;2022-08-25T06:04:10;7.87;;;5.90;;
39620;SDS011;25309;48.686;9.170;2022-08-25T06:06:38;7.53;;;5.73;;
39620;SDS011;25309;48.686;9.170;2022-08-25T06:09:06;7.03;;;5.73;;
39620;SDS011;25309;48.686;9.170;2022-08-25T06:11:35;9.20;;;6.60;;
39620;SDS011;25309;48.686;9.170;2022-08-25T06:14:03;9.30;;;6.80;;
39620;SDS011;25309;48.686;9.170;2022-08-25T06:16:30;7.63;;;5.73;;
39620;SDS011;25309;48.686;9.170;2022-08-25T06:18:58;9.03;;;6.40;;
39620;SDS011;25309;48.686;9.170;2022-08-25T06:21:26;8.93;;;6.80;;
39620;SDS011;25309;48.686;9.170;2022-08-25T06:23:54;8.97;;;6.53;;
39620;SDS011;25309;48.686;9.170;2022-08-25T06:26:21;8.83;;;6.83;;
39620;SDS011;25309;48.686;9.170;2022-08-25T06:28:49;10.13;;;7.33;;
39620;SDS011;25309;48.686;9.170;2022-08-25T06:31:16;9.77;;;6.47;;
39620;SDS011;25309;48.686;9.170;2022-08-25T06:33:44;9.20;;;6.47;;
39620;SDS011;25309;48.686;9.170;2022-08-25T06:36:11;9.83;;;7.60;;
39620;SDS011;25309;48.686;9.170;2022-08-25T06:38:39;8.47;;;6.50;;
39620;SDS011;25309;48.686;9.170;2022-08-25T06:41:07;9.63;;;7.57;;
39620;SDS011;25309;48.686;9.170;2022-08-25T06:43:38;8.43;;;6.43;;
39620;SDS011;25309;48.686;9.170;2022-08-25T06:46:14;8.77;;;6.43;;
39620;SDS011;25309;48.686;9.170;2022-08-25T06:48:43;8.17;;;6.47;;
39620;SDS011;25309;48.686;9.170;2022-08-25T06:51:11;7.57;;;6.47;;
39620;SDS011;25309;48.686;9.170;2022-08-25T06:53:39;7.60;;;6.37;;
39620;SDS011;25309;48.686;9.170;2022-08-25T06:56:09;7.87;;;6.80;;
39620;SDS011;25309;48.686;9.170;2022-08-25T06:58:36;8.37;;;6.60;;
39620;SDS011;25309;48.686;9.170;2022-08-25T07:01:07;9.00;;;6.77;;
39620;SDS011;25309;48.686;9.170;2022-08-25T07:03:45;8.17;;;6.40;;
39620;SDS011;25309;48.686;9.170;2022-08-25T07:06:13;7.63;;;6.70;;
39620;SDS011;25309;48.686;9.170;2022-08-25T07:08:43;8.40;;;5.90;;
39620;SDS011;25309;48.686;9.170;2022-08-25T07:11:12;6.90;;;5.93;;
39620;SDS011;25309;48.686;9.170;2022-08-25T07:13:42;8.77;;;6.67;;
39620;SDS011;25309;48.686;9.170;2022-08-25T07:16:09;9.03;;;7.53;;
39620;SDS011;25309;48.686;9.170;2022-08-25T07:18:37;8.43;;;6.67;;
39620;SDS011;25309;48.686;9.170;2022-08-25T07:21:04;9.07;;;7.17;;
39620;SDS011;25309;48.686;9.170;2022-08-25T07:23:34;8.70;;;6.80;;
39620;SDS011;25309;48.686;9.170;2022-08-25T07:26:05;8.17;;;6.87;;
39620;SDS011;25309;48.686;9.170;2022-08-25T07:28:53;9.60;;;6.73;;
39620;SDS011;25309;48.686;9.170;2022-08-25T07:31:21;11.83;;;8.00;;
39620;SDS011;25309;48.686;9.170;2022-08-25T07:33:54;8.53;;;6.43;;
39620;SDS011;25309;48.686;9.170;2022-08-25T07:36:41;8.37;;;6.47;;
39620;SDS011;25309;48.686;9.170;2022-08-25T07:39:08;9.73;;;7.30;;
39620;SDS011;25309;48.686;9.170;2022-08-25T07:41:36;8.63;;;6.83;;
39620;SDS011;25309;48.686;9.170;2022-08-25T07:44:06;10.97;;;7.67;;
39620;SDS011;25309;48.686;9.170;2022-08-25T07:46:35;8.63;;;6.87;;
39620;SDS011;25309;48.686;9.170;2022-08-25T07:49:02;8.00;;;6.70;;
39620;SDS011;25309;48.686;9.170;2022-08-25T07:51:41;7.67;;;5.77;;
39620;SDS011;25309;48.686;9.170;2022-08-25T07:54:28;7.93;;;5.73;;
39620;SDS011;25309;48.686;9.170;2022-08-25T07:57:00;6.47;;;5.77;;
39620;SDS011;25309;48.686;9.170;2022-08-25T07:59:28;6.07;;;5.43;;
39620;SDS011;25309;48.686;9.170;2022-08-25T08:02:05;8.03;;;5.37;;
39620;SDS011;25309;48.686;9.170;2022-08-25T08:04:34;8.37;;;6.47;;
39620;SDS011;25309;48.686;9.170;2022-08-25T08:07:01;7.27;;;6.07;;
39620;SDS011;25309;48.686;9.170;2022-08-25T08:09:28;7.20;;;6.50;;
39620;SDS011;25309;48.686;9.170;2022-08-25T08:11:56;6.90;;;6.20;;
39620;SDS011;25309;48.686;9.170;2022-08-25T08:14:23;9.87;;;5.80;;
39620;SDS011;25309;48.686;9.170;2022-08-25T08:16:51;6.50;;;5.53;;
39620;SDS011;25309;48.686;9.170;2022-08-25T08:19:19;7.67;;;5.57;;
39620;SDS011;25309;48.686;9.170;2022-08-25T08:21:48;6.33;;;5.03;;
39620;SDS011;25309;48.686;9.170;2022-08-25T08:24:17;6.33;;;4.93;;
39620;SDS011;25309;48.686;9.170;2022-08-25T08:27:05;8.33;;;5.57;;
39620;SDS011;25309;48.686;9.170;2022-08-25T08:29:33;7.60;;;5.33;;
39620;SDS011;25309;48.686;9.170;2022-08-25T08:32:02;6.20;;;5.20;;
39620;SDS011;25309;48.686;9.170;2022-08-25T08:34:31;6.33;;;5.23;;
39620;SDS011;25309;48.686;9.170;2022-08-25T08:36:58;6.90;;;5.40;;
39620;SDS011;25309;48.686;9.170;2022-08-25T08:39:27;6.70;;;5.83;;
39620;SDS011;25309;48.686;9.170;2022-08-25T08:42:00;6.00;;;5.30;;
39620;SDS011;25309;48.686;9.170;2022-08-25T08:44:49;6.03;;;5.40;;
39620;SDS011;25309;48.686;9.170;2022-08-25T08:47:32;7.50;;;5.70;;
39620;SDS011;25309;48.686;9.170;2022-08-25T08:50:23;5.63;;;4.63;;
39620;SDS011;25309;48.686;9.170;2022-08-25T08:53:00;5.87;;;5.27;;
39620;SDS011;25309;48.686;9.170;2022-08-25T08:55:34;6.83;;;5.10;;
39620;SDS011;25309;48.686;9.170;2022-08-25T08:58:05;7.20;;;5.50;;
39620;SDS011;25309;48.686;9.170;2022-08-25T09:00:36;5.87;;;5.03;;
39620;SDS011;25309;48.686;9.170;2022-08-25T09:03:22;6.33;;;5.10;;
39620;SDS011;25309;48.686;9.170;2022-08-25T09:06:00;6.87;;;5.90;;
39620;SDS011;25309;48.686;9.170;2022-08-25T09:08:32;5.23;;;4.57;;
39620;SDS011;25309;48.686;9.170;2022-08-25T09:11:01;6.10;;;5.20;;
39620;SDS011;25309;48.686;9.170;2022-08-25T09:13:38;5.53;;;5.03;;
39620;SDS011;25309;48.686;9.170;2022-08-25T09:16:24;6.00;;;5.18;;
39620;SDS011;25309;48.686;9.170;2022-08-25T09:19:22;7.00;;;5.10;;
39620;SDS011;25309;48.686;9.170;2022-08-25T09:22:00;6.15;;;5.30;;
39620;SDS011;25309;48.686;9.170;2022-08-25T09:24:55;7.05;;;5.70;;
39620;SDS011;25309;48.686;9.170;2022-08-25T09:27:34;6.13;;;5.53;;
39620;SDS011;25309;48.686;9.170;2022-08-25T09:30:06;5.30;;;4.80;;
39620;SDS011;25309;48.686;9.170;2022-08-25T09:32:37;5.25;;;4.75;;
39620;SDS011;25309;48.686;9.170;2022-08-25T09:35:17;5.45;;;4.93;;
39620;SDS011;25309;48.686;9.170;2022-08-25T09:37:56;5.18;;;4.68;;
39620;SDS011;25309;48.686;9.170;2022-08-25T09:40:25;5.18;;;4.68;;
39620;SDS011;25309;48.686;9.170;2022-08-25T09:42:54;5.05;;;4.55;;
39620;SDS011;25309;48.686;9.170;2022-08-25T09:45:31;4.93;;;4.50;;
39620;SDS011;25309;48.686;9.170;2022-08-25T09:48:21;5.55;;;4.50;;
39620;SDS011;25309;48.686;9.170;2022-08-25T09:50:52;5.93;;;4.53;;
39620;SDS011;25309;48.686;9.170;2022-08-25T09:53:25;4.57;;;3.88;;
39620;SDS011;25309;48.686;9.170;2022-08-25T09:56:00;4.28;;;3.88;;
39620;SDS011;25309;48.686;9.170;2022-08-25T09:58:32;5.47;;;4.38;;
39620;SDS011;25309;48.686;9.170;2022-08-25T10:01:10;4.15;;;3.72;;
39620;SDS011;25309;48.686;9.170;2022-08-25T10:03:55;4.22;;;3.83;;
39620;SDS011;25309;48.686;9.170;2022-08-25T10:06:26;4.40;;;4.00;;
39620;SDS011;25309;48.686;9.170;2022-08-25T10:08:57;4.55;;;3.92;;
39620;SDS011;25309;48.686;9.170;2022-08-25T10:11:34;5.13;;;3.92;;
39620;SDS011;25309;48.686;9.170;2022-08-25T10:14:07;4.90;;;4.50;;
39620;SDS011;25309;48.686;9.170;2022-08-25T10:16:43;4.85;;;4.00;;
39620;SDS011;25309;48.686;9.170;2022-08-25T10:19:21;4.28;;;3.88;;
39620;SDS011;25309;48.686;9.170;2022-08-25T10:22:05;4.72;;;4.00;;
39620;SDS011;25309;48.686;9.170;2022-08-25T10:24:36;4.25;;;3.63;;
39620;SDS011;25309;48.686;9.170;2022-08-25T10:27:13;4.20;;;3.80;;
39620;SDS011;25309;48.686;9.170;2022-08-25T10:29:55;4.70;;;4.30;;
39620;SDS011;25309;48.686;9.170;2022-08-25T10:32:35;4.65;;;3.70;;
39620;SDS011;25309;48.686;9.170;2022-08-25T10:35:22;5.82;;;3.90;;
39620;SDS011;25309;48.686;9.170;2022-08-25T10:37:55;5.07;;;4.47;;
39620;SDS011;25309;48.686;9.170;2022-08-25T10:40:30;5.47;;;4.10;;
39620;SDS011;25309;48.686;9.170;2022-08-25T10:43:04;4.40;;;3.58;;
39620;SDS011;25309;48.686;9.170;2022-08-25T10:45:36;4.07;;;3.67;;
39620;SDS011;25309;48.686;9.170;2022-08-25T10:48:17;4.40;;;4.00;;
39620;SDS011;25309;48.686;9.170;2022-08-25T10:50:55;4.50;;;4.10;;
39620;SDS011;25309;48.686;9.170;2022-08-25T10:53:31;4.20;;;3.38;;
39620;SDS011;25309;48.686;9.170;2022-08-25T10:56:07;5.25;;;3.75;;
39620;SDS011;25309;48.686;9.170;2022-08-25T11:01:40;4.55;;;4.15;;
39620;SDS011;25309;48.686;9.170;2022-08-25T11:04:20;5.88;;;3.95;;
39620;SDS011;25309;48.686;9.170;2022-08-25T11:06:54;4.93;;;3.95;;
39620;SDS011;25309;48.686;9.170;2022-08-25T11:09:28;4.57;;;3.80;;
39620;SDS011;25309;48.686;9.170;2022-08-25T11:12:03;5.82;;;3.78;;
39620;SDS011;25309;48.686;9.170;2022-08-25T11:14:35;3.90;;;3.40;;
39620;SDS011;25309;48.686;9.170;2022-08-25T11:17:08;4.00;;;3.60;;
39620;SDS011;25309;48.686;9.170;2022-08-25T11:19:38;3.78;;;3.38;;
39620;SDS011;25309;48.686;9.170;2022-08-25T11:22:11;6.13;;;3.95;;
39620;SDS011;25309;48.686;9.170;2022-08-25T11:24:57;4.63;;;3.60;;
39620;SDS011;25309;48.686;9.170;2022-08-25T11:27:31;4.43;;;3.70;;
39620;SDS011;25309;48.686;9.170;2022-08-25T11:30:05;4.47;;;3.83;;
39620;SDS011;25309;48.686;9.170;2022-08-25T11:32:35;4.00;;;3.55;;
39620;SDS011;25309;48.686;9.170;2022-08-25T11:35:04;4.78;;;3.50;;
39620;SDS011;25309;48.686;9.170;2022-08-25T11:37:39;3.50;;;3.17;;
39620;SDS011;25309;48.686;9.170;2022-08-25T11:40:25;3.20;;;2.90;;
39620;SDS011;25309;48.686;9.170;2022-08-25T11:43:03;3.55;;;3.25;;
39620;SDS011;25309;48.686;9.170;2022-08-25T11:45:45;3.70;;;3.30;;
39620;SDS011;25309;48.686;9.170;2022-08-25T11:48:23;3.67;;;3.33;;
39620;SDS011;25309;48.686;9.170;2022-08-25T11:51:01;3.75;;;3.45;;
39620;SDS011;25309;48.686;9.170;2022-08-25T11:53:31;4.60;;;3.42;;
39620;SDS011;25309;48.686;9.170;2022-08-25T11:56:02;4.18;;;3.70;;
39620;SDS011;25309;48.686;9.170;2022-08-25T11:58:36;4.25;;;3.47;;
39620;SDS011;25309;48.686;9.170;2022-08-25T12:01:10;3.97;;;3.58;;
39620;SDS011;25309;48.686;9.170;2022-08-25T12:04:09;4.70;;;3.90;;
39620;SDS011;25309;48.686;9.170;2022-08-25T12:12:54;3.65;;;3.30;;
39620;SDS011;25309;48.686;9.170;2022-08-25T12:15:55;3.40;;;2.85;;
39620;SDS011;25309;48.686;9.170;2022-08-25T12:21:27;3.40;;;3.10;;
39620;SDS011;25309;48.686;9.170;2022-08-25T12:24:05;2.95;;;2.65;;
39620;SDS011;25309;48.686;9.170;2022-08-25T12:26:37;2.95;;;2.40;;
39620;SDS011;25309;48.686;9.170;2022-08-25T12:29:14;2.88;;;2.63;;
39620;SDS011;25309;48.686;9.170;2022-08-25T12:34:46;3.25;;;2.80;;
39620;SDS011;25309;48.686;9.170;2022-08-25T12:37:34;3.25;;;2.95;;
39620;SDS011;25309;48.686;9.170;2022-08-25T12:40:29;3.17;;;2.63;;
39620;SDS011;25309;48.686;9.170;2022-08-25T12:42:59;4.88;;;2.90;;
39620;SDS011;25309;48.686;9.170;2022-08-25T12:45:33;3.17;;;2.70;;
39620;SDS011;25309;48.686;9.170;2022-08-25T12:51:08;4.00;;;2.83;;
39620;SDS011;25309;48.686;9.170;2022-08-25T12:53:42;3.08;;;2.78;;
39620;SDS011;25309;48.686;9.170;2022-08-25T12:56:15;3.50;;;2.90;;
39620;SDS011;25309;48.686;9.170;2022-08-25T12:58:47;4.30;;;2.97;;
39620;SDS011;25309;48.686;9.170;2022-08-25T13:01:30;3.25;;;2.80;;
39620;SDS011;25309;48.686;9.170;2022-08-25T13:04:10;3.72;;;2.70;;
39620;SDS011;25309;48.686;9.170;2022-08-25T13:07:01;2.83;;;2.53;;
39620;SDS011;25309;48.686;9.170;2022-08-25T13:09:56;3.72;;;2.88;;
39620;SDS011;25309;48.686;9.170;2022-08-25T13:12:45;2.72;;;2.53;;
39620;SDS011;25309;48.686;9.170;2022-08-25T13:15:28;2.75;;;2.53;;
39620;SDS011;25309;48.686;9.170;2022-08-25T13:18:16;3.72;;;2.70;;
39620;SDS011;25309;48.686;9.170;2022-08-25T13:20:46;3.20;;;2.60;;
39620;SDS011;25309;48.686;9.170;2022-08-25T13:23:16;3.35;;;2.53;;
39620;SDS011;25309;48.686;9.170;2022-08-25T13:25:47;2.80;;;2.50;;
39620;SDS011;25309;48.686;9.170;2022-08-25T13:28:22;3.28;;;2.80;;
39620;SDS011;25309;48.686;9.170;2022-08-25T13:30:56;3.50;;;2.90;;
39620;SDS011;25309;48.686;9.170;2022-08-25T13:33:27;3.90;;;2.72;;
39620;SDS011;25309;48.686;9.170;2022-08-25T13:35:55;3.03;;;2.60;;
39620;SDS011;25309;48.686;9.170;2022-08-25T13:38:43;4.55;;;3.10;;
39620;SDS011;25309;48.686;9.170;2022-08-25T13:41:15;3.60;;;2.70;;
39620;SDS011;25309;48.686;9.170;2022-08-25T13:43:54;4.45;;;2.80;;
39620;SDS011;25309;48.686;9.170;2022-08-25T13:46:26;2.75;;;2.55;;
39620;SDS011;25309;48.686;9.170;2022-08-25T13:49:02;3.20;;;2.20;;
39620;SDS011;25309;48.686;9.170;2022-08-25T13:51:31;4.25;;;2.75;;
39620;SDS011;25309;48.686;9.170;2022-08-25T13:53:59;2.78;;;2.50;;
39620;SDS011;25309;48.686;9.170;2022-08-25T13:56:29;2.92;;;2.63;;
39620;SDS011;25309;48.686;9.170;2022-08-25T13:59:16;3.17;;;2.83;;
39620;SDS011;25309;48.686;9.170;2022-08-25T14:01:47;3.00;;;2.70;;
39620;SDS011;25309;48.686;9.170;2022-08-25T14:04:22;3.65;;;2.50;;
39620;SDS011;25309;48.686;9.170;2022-08-25T14:07:13;4.35;;;2.75;;
39620;SDS011;25309;48.686;9.170;2022-08-25T14:10:00;2.92;;;2.70;;
39620;SDS011;25309;48.686;9.170;2022-08-25T14:12:35;2.80;;;2.50;;
39620;SDS011;25309;48.686;9.170;2022-08-25T14:15:09;3.13;;;2.72;;
39620;SDS011;25309;48.686;9.170;2022-08-25T14:17:59;4.20;;;2.72;;
39620;SDS011;25309;48.686;9.170;2022-08-25T14:20:30;2.90;;;2.40;;
39620;SDS011;25309;48.686;9.170;2022-08-25T14:22:59;3.33;;;2.67;;
39620;SDS011;25309;48.686;9.170;2022-08-25T14:25:30;3.25;;;2.50;;
39620;SDS011;25309;48.686;9.170;2022-08-25T14:27:58;3.13;;;2.58;;
39620;SDS011;25309;48.686;9.170;2022-08-25T14:30:42;3.15;;;2.50;;
39620;SDS011;25309;48.686;9.170;2022-08-25T14:33:12;3.25;;;2.95;;
39620;SDS011;25309;48.686;9.170;2022-08-25T14:35:47;3.80;;;2.70;;
39620;SDS011;25309;48.686;9.170;2022-08-25T14:38:16;2.58;;;2.38;;
39620;SDS011;25309;48.686;9.170;2022-08-25T14:40:45;3.60;;;2.60;;
39620;SDS011;25309;48.686;9.170;2022-08-25T14:43:13;3.20;;;2.47;;
39620;SDS011;25309;48.686;9.170;2022-08-25T14:45:42;2.70;;;2.50;;
39620;SDS011;25309;48.686;9.170;2022-08-25T14:48:15;3.85;;;2.60;;
39620;SDS011;25309;48.686;9.170;2022-08-25T14:50:46;4.60;;;2.70;;
39620;SDS011;25309;48.686;9.170;2022-08-25T14:53:15;2.53;;;2.33;;
39620;SDS011;25309;48.686;9.170;2022-08-25T14:55:42;2.70;;;2.50;;
39620;SDS011;25309;48.686;9.170;2022-08-25T14:58:09;3.33;;;3.00;;
39620;SDS011;25309;48.686;9.170;2022-08-25T15:00:39;2.85;;;2.55;;
39620;SDS011;25309;48.686;9.170;2022-08-25T15:03:10;3.47;;;2.70;;
39620;SDS011;25309;48.686;9.170;2022-08-25T15:05:38;2.88;;;2.60;;
39620;SDS011;25309;48.686;9.170;2022-08-25T15:08:07;2.83;;;2.40;;
39620;SDS011;25309;48.686;9.170;2022-08-25T15:10:58;2.60;;;2.40;;
39620;SDS011;25309;48.686;9.170;2022-08-25T15:13:25;2.78;;;2.50;;
39620;SDS011;25309;48.686;9.170;2022-08-25T15:15:53;2.92;;;2.55;;
39620;SDS011;25309;48.686;9.170;2022-08-25T15:18:23;2.80;;;2.30;;
39620;SDS011;25309;48.686;9.170;2022-08-25T15:20:51;3.53;;;2.40;;
39620;SDS011;25309;48.686;9.170;2022-08-25T15:23:19;2.55;;;2.35;;
39620;SDS011;25309;48.686;9.170;2022-08-25T15:25:47;2.80;;;2.47;;
39620;SDS011;25309;48.686;9.170;2022-08-25T15:28:18;2.95;;;2.45;;
39620;SDS011;25309;48.686;9.170;2022-08-25T15:30:47;2.70;;;2.50;;
39620;SDS011;25309;48.686;9.170;2022-08-25T15:33:14;2.78;;;2.58;;
39620;SDS011;25309;48.686;9.170;2022-08-25T15:35:42;4.15;;;2.63;;